Time,TemperatureF,DewpointF,PressureIn,WindDirection,WindDirectionDegrees,WindSpeedMPH,WindSpeedGustMPH,Humidity,HourlyPrecipIn,Conditions,Clouds,dailyrainin,SoftwareType,DateUTC
2013-04-21 00:04:00,57.2,49.0,30.10,ESE,118,0.0,1.0,74,0.00,,,0.00,Wunderground v.1.15,2013-04-21 05:04:00,
2013-04-21 00:10:00,57.0,49.2,30.10,East,82,0.0,0.0,75,0.00,,,0.00,Wunderground v.1.15,2013-04-21 05:10:00,
2013-04-21 00:20:00,56.5,49.0,30.10,ESE,117,0.0,0.0,76,0.00,,,0.00,Wunderground v.1.15,2013-04-21 05:20:00,
2013-04-21 00:29:00,56.1,49.0,30.10,SE,139,0.0,0.0,77,0.00,,,0.00,Wunderground v.1.15,2013-04-21 05:29:00,
2013-04-21 00:40:00,55.7,48.9,30.10,East,96,0.0,0.0,78,0.00,,,0.00,Wunderground v.1.15,2013-04-21 05:40:00,
2013-04-21 00:49:00,55.3,49.2,30.10,ESE,109,0.0,0.0,80,0.00,,,0.00,Wunderground v.1.15,2013-04-21 05:49:00,
2013-04-21 00:55:00,55.2,49.1,30.10,South,183,0.0,1.0,80,0.00,,,0.00,Wunderground v.1.15,2013-04-21 05:55:00,
2013-04-21 01:05:00,55.1,49.0,30.11,SE,142,0.0,2.0,80,0.00,,,0.00,Wunderground v.1.15,2013-04-21 06:05:00,
2013-04-21 01:15:00,54.7,49.0,30.10,SE,138,0.0,0.0,81,0.00,,,0.00,Wunderground v.1.15,2013-04-21 06:15:00,
2013-04-21 01:25:00,54.4,49.0,30.10,SE,129,0.0,0.0,82,0.00,,,0.00,Wunderground v.1.15,2013-04-21 06:25:00,
2013-04-21 01:30:00,54.2,48.8,30.10,NNE,16,0.0,0.0,82,0.00,,,0.00,Wunderground v.1.15,2013-04-21 06:30:00,
2013-04-21 01:40:00,53.7,48.3,30.10,NNE,16,0.0,0.0,82,0.00,,,0.00,Wunderground v.1.15,2013-04-21 06:40:00,
2013-04-21 01:45:00,53.4,48.4,30.10,NNE,15,0.0,0.0,83,0.00,,,0.00,Wunderground v.1.15,2013-04-21 06:45:00,
2013-04-21 01:55:00,53.0,48.3,30.09,NNE,16,0.0,0.0,84,0.00,,,0.00,Wunderground v.1.15,2013-04-21 06:55:00,
2013-04-21 02:05:00,52.6,48.2,30.09,NNE,16,0.0,0.0,85,0.00,,,0.00,Wunderground v.1.15,2013-04-21 07:05:00,
2013-04-21 02:15:00,52.3,48.2,30.09,NNE,16,0.0,0.0,86,0.00,,,0.00,Wunderground v.1.15,2013-04-21 07:15:00,
2013-04-21 02:25:00,51.9,47.8,30.08,NNE,18,0.0,0.0,86,0.00,,,0.00,Wunderground v.1.15,2013-04-21 07:25:00,
2013-04-21 02:30:00,51.9,48.2,30.09,NNE,18,0.0,0.0,87,0.00,,,0.00,Wunderground v.1.15,2013-04-21 07:30:00,
2013-04-21 02:40:00,51.9,48.5,30.08,NNE,18,0.0,0.0,88,0.00,,,0.00,Wunderground v.1.15,2013-04-21 07:40:00,
2013-04-21 02:50:00,52.5,48.7,30.08,NNE,18,0.0,0.0,87,0.00,,,0.00,Wunderground v.1.15,2013-04-21 07:50:00,
2013-04-21 03:00:00,52.9,48.8,30.08,NE,53,1.0,1.0,86,0.00,,,0.00,Wunderground v.1.15,2013-04-21 08:00:00,
2013-04-21 03:05:00,52.8,48.7,30.08,ENE,68,1.0,1.0,86,0.00,,,0.00,Wunderground v.1.15,2013-04-21 08:05:00,
2013-04-21 03:15:00,52.6,48.5,30.08,ENE,68,0.0,0.0,86,0.00,,,0.00,Wunderground v.1.15,2013-04-21 08:15:00,
2013-04-21 03:20:00,52.5,48.4,30.09,ENE,68,0.0,0.0,86,0.00,,,0.00,Wunderground v.1.15,2013-04-21 08:20:00,
2013-04-21 03:30:00,52.5,48.4,30.09,ENE,68,0.0,1.0,86,0.00,,,0.00,Wunderground v.1.15,2013-04-21 08:30:00,
2013-04-21 03:35:00,52.5,48.7,30.09,NE,53,0.0,1.0,87,0.00,,,0.00,Wunderground v.1.15,2013-04-21 08:35:00,
2013-04-21 03:45:00,52.7,48.9,30.10,NE,53,0.0,0.0,87,0.00,,,0.00,Wunderground v.1.15,2013-04-21 08:45:00,
2013-04-21 03:50:00,52.8,49.0,30.10,NW,318,0.0,1.0,87,0.00,,,0.00,Wunderground v.1.15,2013-04-21 08:50:00,
2013-04-21 04:00:00,53.3,49.5,30.10,NNE,13,0.0,0.0,87,0.00,,,0.00,Wunderground v.1.15,2013-04-21 09:00:00,
2013-04-21 04:10:00,53.6,49.5,30.11,NNE,13,0.0,0.0,86,0.00,,,0.00,Wunderground v.1.15,2013-04-21 09:10:00,
2013-04-21 04:20:00,53.9,49.8,30.11,North,356,0.0,0.0,86,0.00,,,0.00,Wunderground v.1.15,2013-04-21 09:20:00,
2013-04-21 04:25:00,54.0,49.9,30.11,North,358,0.0,0.0,86,0.00,,,0.00,Wunderground v.1.15,2013-04-21 09:25:00,
2013-04-21 04:35:00,54.1,49.7,30.10,NNE,33,0.0,0.0,85,0.00,,,0.00,Wunderground v.1.15,2013-04-21 09:35:00,
2013-04-21 04:40:00,54.0,49.6,30.10,NNE,25,0.0,1.0,85,0.00,,,0.00,Wunderground v.1.15,2013-04-21 09:40:00,
2013-04-21 04:50:00,53.9,49.8,30.10,NNE,25,0.0,0.0,86,0.00,,,0.00,Wunderground v.1.15,2013-04-21 09:50:00,
2013-04-21 05:00:00,53.8,49.7,30.10,NE,49,0.0,0.0,86,0.00,,,0.00,Wunderground v.1.15,2013-04-21 10:00:00,
2013-04-21 05:10:00,53.9,49.8,30.10,ENE,57,0.0,0.0,86,0.00,,,0.00,Wunderground v.1.15,2013-04-21 10:10:00,
2013-04-21 05:15:00,54.0,49.9,30.10,ENE,57,0.0,0.0,86,0.00,,,0.00,Wunderground v.1.15,2013-04-21 10:15:00,
2013-04-21 05:25:00,54.0,49.9,30.10,ENE,57,0.0,0.0,86,0.00,,,0.00,Wunderground v.1.15,2013-04-21 10:25:00,
2013-04-21 05:30:00,54.0,49.6,30.10,ENE,57,0.0,0.0,85,0.00,,,0.00,Wunderground v.1.15,2013-04-21 10:30:00,
2013-04-21 05:40:00,54.0,49.6,30.09,ENE,57,0.0,0.0,85,0.00,,,0.00,Wunderground v.1.15,2013-04-21 10:40:00,
2013-04-21 05:45:00,54.0,49.6,30.09,ENE,57,0.0,0.0,85,0.00,,,0.00,Wunderground v.1.15,2013-04-21 10:45:00,
2013-04-21 05:55:00,53.9,49.8,30.10,ENE,57,0.0,0.0,86,0.00,,,0.00,Wunderground v.1.15,2013-04-21 10:55:00,
2013-04-21 06:05:00,53.8,49.7,30.10,NNW,342,0.0,1.0,86,0.00,,,0.00,Wunderground v.1.15,2013-04-21 11:05:00,
2013-04-21 06:15:00,53.9,49.8,30.10,NNW,341,0.0,0.0,86,0.00,,,0.00,Wunderground v.1.15,2013-04-21 11:15:00,
2013-04-21 06:20:00,53.9,49.8,30.10,NNW,341,0.0,0.0,86,0.00,,,0.00,Wunderground v.1.15,2013-04-21 11:20:00,
2013-04-21 06:30:00,54.0,49.9,30.11,NNW,342,0.0,0.0,86,0.00,,,0.00,Wunderground v.1.15,2013-04-21 11:30:00,
2013-04-21 06:35:00,54.0,49.6,30.11,NNE,29,0.0,0.0,85,0.00,,,0.00,Wunderground v.1.15,2013-04-21 11:35:00,
2013-04-21 06:45:00,54.1,49.7,30.11,NNE,29,0.0,1.0,85,0.00,,,0.00,Wunderground v.1.15,2013-04-21 11:45:00,
2013-04-21 06:55:00,54.1,49.7,30.12,NE,34,0.0,0.0,85,0.00,,,0.00,Wunderground v.1.15,2013-04-21 11:55:00,
2013-04-21 07:05:00,54.1,49.7,30.12,NW,324,0.0,0.0,85,0.00,,,0.00,Wunderground v.1.15,2013-04-21 12:05:00,
2013-04-21 07:10:00,54.2,49.8,30.12,WNW,298,0.0,0.0,85,0.00,,,0.00,Wunderground v.1.15,2013-04-21 12:10:00,
2013-04-21 07:20:00,54.3,49.9,30.12,West,278,0.0,0.0,85,0.00,,,0.00,Wunderground v.1.15,2013-04-21 12:20:00,
2013-04-21 07:25:00,54.3,49.9,30.12,ENE,75,0.0,0.0,85,0.00,,,0.00,Wunderground v.1.15,2013-04-21 12:25:00,
2013-04-21 07:35:00,54.5,50.1,30.12,SE,134,0.0,0.0,85,0.00,,,0.00,Wunderground v.1.15,2013-04-21 12:35:00,
2013-04-21 07:40:00,54.7,50.3,30.12,SE,129,0.0,0.0,85,0.00,,,0.00,Wunderground v.1.15,2013-04-21 12:40:00,
2013-04-21 07:50:00,54.8,50.4,30.13,SE,133,0.0,0.0,85,0.00,,,0.00,Wunderground v.1.15,2013-04-21 12:50:00,
2013-04-21 07:55:00,54.8,50.4,30.13,SE,133,0.0,0.0,85,0.00,,,0.00,Wunderground v.1.15,2013-04-21 12:55:00,
2013-04-21 08:05:00,54.9,50.5,30.14,SE,144,0.0,0.0,85,0.00,,,0.00,Wunderground v.1.15,2013-04-21 13:05:00,
2013-04-21 08:15:00,55.4,51.0,30.14,SSE,156,0.0,0.0,85,0.00,,,0.00,Wunderground v.1.15,2013-04-21 13:15:00,
2013-04-21 08:25:00,56.1,51.3,30.14,ESE,114,0.0,1.0,84,0.00,,,0.00,Wunderground v.1.15,2013-04-21 13:25:00,
2013-04-21 08:30:00,56.4,51.6,30.14,ESE,107,1.0,1.0,84,0.00,,,0.00,Wunderground v.1.15,2013-04-21 13:30:00,
2013-04-21 08:40:00,57.0,51.9,30.14,ESE,123,1.0,2.0,83,0.00,,,0.00,Wunderground v.1.15,2013-04-21 13:40:00,
2013-04-21 08:45:00,57.8,52.7,30.14,SE,127,1.0,3.0,83,0.00,,,0.00,Wunderground v.1.15,2013-04-21 13:45:00,
2013-04-21 08:55:00,58.9,52.7,30.14,NW,316,1.0,1.0,80,0.00,,,0.00,Wunderground v.1.15,2013-04-21 13:55:00,
2013-04-21 09:05:00,59.4,53.2,30.14,East,98,1.0,1.0,80,0.00,,,0.00,Wunderground v.1.15,2013-04-21 14:05:00,
2013-04-21 09:15:00,60.2,54.0,30.14,West,266,2.0,3.0,80,0.00,,,0.00,Wunderground v.1.15,2013-04-21 14:15:00,
2013-04-21 09:20:00,60.4,53.9,30.14,SE,132,2.0,2.0,79,0.00,,,0.00,Wunderground v.1.15,2013-04-21 14:20:00,
2013-04-21 09:30:00,60.6,54.0,30.15,SSE,152,1.0,3.0,79,0.00,,,0.00,Wunderground v.1.15,2013-04-21 14:30:00,
2013-04-21 09:35:00,60.7,53.8,30.15,ESE,120,2.0,3.0,78,0.00,,,0.00,Wunderground v.1.15,2013-04-21 14:35:00,
2013-04-21 09:45:00,61.9,55.0,30.15,ESE,111,1.0,1.0,78,0.00,,,0.00,Wunderground v.1.15,2013-04-21 14:45:00,
2013-04-21 09:50:00,62.4,55.1,30.15,ESE,113,1.0,1.0,77,0.00,,,0.00,Wunderground v.1.15,2013-04-21 14:50:00,
2013-04-21 10:00:00,63.3,55.6,30.15,South,179,1.0,1.0,76,0.00,,,0.00,Wunderground v.1.15,2013-04-21 15:00:00,
2013-04-21 10:10:00,64.1,56.0,30.16,West,274,1.0,2.0,75,0.00,,,0.00,Wunderground v.1.15,2013-04-21 15:10:00,
2013-04-21 10:20:00,65.2,57.1,30.16,West,277,1.0,1.0,75,0.00,,,0.00,Wunderground v.1.15,2013-04-21 15:20:00,
2013-04-21 10:25:00,65.5,56.2,30.15,ESE,111,2.0,4.0,72,0.00,,,0.00,Wunderground v.1.15,2013-04-21 15:25:00,
2013-04-21 10:35:00,65.8,56.9,30.15,NW,309,2.0,2.0,73,0.00,,,0.00,Wunderground v.1.15,2013-04-21 15:35:00,
2013-04-21 10:40:00,66.2,56.9,30.15,SW,235,1.0,2.0,72,0.00,,,0.00,Wunderground v.1.15,2013-04-21 15:40:00,
2013-04-21 10:50:00,66.8,57.1,30.16,West,278,1.0,1.0,71,0.00,,,0.00,Wunderground v.1.15,2013-04-21 15:50:00,
2013-04-21 11:00:00,67.3,57.2,30.16,WNW,288,1.0,1.0,70,0.00,,,0.00,Wunderground v.1.15,2013-04-21 16:00:00,
2013-04-21 11:10:00,67.6,57.9,30.16,East,86,1.0,2.0,71,0.00,,,0.00,Wunderground v.1.15,2013-04-21 16:10:00,
2013-04-21 11:15:00,68.0,57.0,30.16,ESE,111,1.0,2.0,68,0.00,,,0.00,Wunderground v.1.15,2013-04-21 16:15:00,
2013-04-21 11:25:00,68.7,58.1,30.15,SW,218,2.0,2.0,69,0.00,,,0.00,Wunderground v.1.15,2013-04-21 16:25:00,
2013-04-21 11:35:00,69.1,57.7,30.15,ESE,108,1.0,2.0,67,0.00,,,0.00,Wunderground v.1.15,2013-04-21 16:35:00,
2013-04-21 11:45:00,69.9,57.2,30.15,NNW,344,2.0,3.0,64,0.00,,,0.00,Wunderground v.1.15,2013-04-21 16:45:00,
2013-04-21 11:50:00,70.5,57.7,30.15,WSW,249,1.0,1.0,64,0.00,,,0.00,Wunderground v.1.15,2013-04-21 16:50:00,
2013-04-21 12:00:00,70.7,56.6,30.15,NW,316,1.0,1.0,61,0.00,,,0.00,Wunderground v.1.15,2013-04-21 17:00:00,
2013-04-21 12:05:00,71.2,57.5,30.15,North,6,1.0,2.0,62,0.00,,,0.00,Wunderground v.1.15,2013-04-21 17:05:00,
2013-04-21 12:15:00,71.5,56.4,30.15,SSW,209,2.0,2.0,59,0.00,,,0.00,Wunderground v.1.15,2013-04-21 17:15:00,
2013-04-21 12:25:00,72.9,58.2,30.14,East,82,2.0,2.0,60,0.00,,,0.00,Wunderground v.1.15,2013-04-21 17:25:00,
2013-04-21 12:35:00,74.0,56.8,30.14,SSW,211,2.0,3.0,55,0.00,,,0.00,Wunderground v.1.15,2013-04-21 17:35:00,
2013-04-21 12:40:00,74.4,57.2,30.14,ENE,58,2.0,2.0,55,0.00,,,0.00,Wunderground v.1.15,2013-04-21 17:40:00,
2013-04-21 12:50:00,74.6,57.4,30.13,SW,222,2.0,2.0,55,0.00,,,0.00,Wunderground v.1.15,2013-04-21 17:50:00,
2013-04-21 12:55:00,75.0,57.2,30.13,West,276,2.0,2.0,54,0.00,,,0.00,Wunderground v.1.15,2013-04-21 17:55:00,
2013-04-21 13:05:00,76.5,58.1,30.12,NNE,18,2.0,3.0,53,0.00,,,0.00,Wunderground v.1.15,2013-04-21 18:05:00,
2013-04-21 13:10:00,76.6,58.2,30.12,West,278,2.0,2.0,53,0.00,,,0.00,Wunderground v.1.15,2013-04-21 18:10:00,
2013-04-21 13:20:00,76.3,57.4,30.11,WSW,245,2.0,2.0,52,0.00,,,0.00,Wunderground v.1.15,2013-04-21 18:20:00,
2013-04-21 13:30:00,77.3,57.2,30.11,WNW,295,2.0,2.0,50,0.00,,,0.00,Wunderground v.1.15,2013-04-21 18:30:00,
2013-04-21 13:40:00,77.6,58.0,30.10,ENE,73,1.0,1.0,51,0.00,,,0.00,Wunderground v.1.15,2013-04-21 18:40:00,
2013-04-21 13:45:00,77.1,57.6,30.10,WNW,298,1.0,2.0,51,0.00,,,0.00,Wunderground v.1.15,2013-04-21 18:45:00,
2013-04-21 13:55:00,76.3,56.8,30.10,West,262,1.0,1.0,51,0.00,,,0.00,Wunderground v.1.15,2013-04-21 18:55:00,
2013-04-21 14:00:00,76.9,59.0,30.09,NE,56,1.0,3.0,54,0.00,,,0.00,Wunderground v.1.15,2013-04-21 19:00:00,
2013-04-21 14:10:00,78.9,59.2,30.09,SW,219,2.0,2.0,51,0.00,,,0.00,Wunderground v.1.15,2013-04-21 19:10:00,
2013-04-21 14:20:00,78.9,58.7,30.08,East,101,2.0,2.0,50,0.00,,,0.00,Wunderground v.1.15,2013-04-21 19:20:00,
2013-04-21 14:30:00,78.8,59.1,30.08,East,79,2.0,2.0,51,0.00,,,0.00,Wunderground v.1.15,2013-04-21 19:30:00,
2013-04-21 14:35:00,79.0,59.3,30.08,WNW,293,1.0,2.0,51,0.00,,,0.00,Wunderground v.1.15,2013-04-21 19:35:00,
2013-04-21 14:45:00,80.2,57.5,30.07,NW,315,1.0,2.0,46,0.00,,,0.00,Wunderground v.1.15,2013-04-21 19:45:00,
2013-04-21 14:50:00,80.1,58.6,30.07,WNW,283,2.0,2.0,48,0.00,,,0.00,Wunderground v.1.15,2013-04-21 19:50:00,
2013-04-21 15:00:00,80.5,57.8,30.06,ESE,121,2.0,2.0,46,0.00,,,0.00,Wunderground v.1.15,2013-04-21 20:00:00,
2013-04-21 15:10:00,81.5,59.3,30.06,ESE,108,2.0,3.0,47,0.00,,,0.00,Wunderground v.1.15,2013-04-21 20:10:00,
2013-04-21 15:20:00,80.7,58.6,30.05,WNW,302,2.0,2.0,47,0.00,,,0.00,Wunderground v.1.15,2013-04-21 20:20:00,
2013-04-21 15:25:00,81.4,58.6,30.05,South,173,1.0,2.0,46,0.00,,,0.00,Wunderground v.1.15,2013-04-21 20:25:00,
2013-04-21 15:35:00,81.6,58.8,30.05,SW,229,2.0,2.0,46,0.00,,,0.00,Wunderground v.1.15,2013-04-21 20:35:00,
2013-04-21 15:40:00,81.4,58.0,30.04,South,176,1.0,1.0,45,0.00,,,0.00,Wunderground v.1.15,2013-04-21 20:40:00,
2013-04-21 15:50:00,81.1,58.4,30.04,SSW,198,1.0,1.0,46,0.00,,,0.00,Wunderground v.1.15,2013-04-21 20:50:00,
2013-04-21 16:00:00,81.4,58.0,30.03,WNW,294,2.0,2.0,45,0.00,,,0.00,Wunderground v.1.15,2013-04-21 21:00:00,
2013-04-21 16:10:00,80.6,58.5,30.03,SW,229,2.0,2.0,47,0.00,,,0.00,Wunderground v.1.15,2013-04-21 21:10:00,
2013-04-21 16:15:00,80.6,57.9,30.02,WNW,283,2.0,2.0,46,0.00,,,0.00,Wunderground v.1.15,2013-04-21 21:15:00,
2013-04-21 16:25:00,81.6,58.2,30.02,SE,131,1.0,1.0,45,0.00,,,0.00,Wunderground v.1.15,2013-04-21 21:25:00,
2013-04-21 16:30:00,81.7,59.5,30.02,SE,134,2.0,3.0,47,0.00,,,0.00,Wunderground v.1.15,2013-04-21 21:30:00,
2013-04-21 16:40:00,82.0,58.6,30.02,ENE,63,1.0,1.0,45,0.00,,,0.00,Wunderground v.1.15,2013-04-21 21:40:00,
2013-04-21 16:45:00,81.9,58.5,30.01,SE,135,1.0,1.0,45,0.00,,,0.00,Wunderground v.1.15,2013-04-21 21:45:00,
2013-04-21 16:55:00,82.7,59.8,30.01,ESE,104,1.0,2.0,46,0.00,,,0.00,Wunderground v.1.15,2013-04-21 21:55:00,
2013-04-21 17:00:00,82.5,59.0,30.01,WSW,250,1.0,2.0,45,0.00,,,0.00,Wunderground v.1.15,2013-04-21 22:00:00,
2013-04-21 17:10:00,82.6,58.5,30.01,SSE,154,1.0,2.0,44,0.00,,,0.00,Wunderground v.1.15,2013-04-21 22:10:00,
2013-04-21 17:15:00,82.9,58.7,30.01,WNW,297,1.0,2.0,44,0.00,,,0.00,Wunderground v.1.15,2013-04-21 22:15:00,
2013-04-21 17:25:00,83.3,59.1,30.00,SSE,163,1.0,3.0,44,0.00,,,0.00,Wunderground v.1.15,2013-04-21 22:25:00,
2013-04-21 17:30:00,82.6,59.1,30.01,WNW,283,2.0,2.0,45,0.00,,,0.00,Wunderground v.1.15,2013-04-21 22:30:00,
2013-04-21 17:40:00,82.1,58.7,30.01,ESE,117,1.0,1.0,45,0.00,,,0.00,Wunderground v.1.15,2013-04-21 22:40:00,
2013-04-21 17:50:00,81.7,57.7,30.00,SW,228,1.0,1.0,44,0.00,,,0.00,Wunderground v.1.15,2013-04-21 22:50:00,
2013-04-21 18:00:00,81.2,57.8,30.00,SE,134,2.0,2.0,45,0.00,,,0.00,Wunderground v.1.15,2013-04-21 23:00:00,
2013-04-21 18:05:00,81.1,58.4,30.00,East,101,2.0,2.0,46,0.00,,,0.00,Wunderground v.1.15,2013-04-21 23:05:00,
2013-04-21 18:15:00,80.9,58.8,30.00,ENE,65,1.0,1.0,47,0.00,,,0.00,Wunderground v.1.15,2013-04-21 23:15:00,
2013-04-21 18:20:00,81.0,58.3,30.00,ESE,103,1.0,2.0,46,0.00,,,0.00,Wunderground v.1.15,2013-04-21 23:20:00,
2013-04-21 18:30:00,80.8,58.1,30.00,South,172,1.0,1.0,46,0.00,,,0.00,Wunderground v.1.15,2013-04-21 23:30:00,
2013-04-21 18:40:00,80.3,57.6,30.00,ESE,120,1.0,1.0,46,0.00,,,0.00,Wunderground v.1.15,2013-04-21 23:40:00,
2013-04-21 18:50:00,80.0,57.4,30.00,WSW,239,1.0,1.0,46,0.00,,,0.00,Wunderground v.1.15,2013-04-21 23:50:00,
2013-04-21 18:55:00,79.6,57.0,30.00,West,263,2.0,2.0,46,0.00,,,0.00,Wunderground v.1.15,2013-04-21 23:55:00,
2013-04-21 19:05:00,79.2,57.8,30.00,SE,127,1.0,1.0,48,0.00,,,0.00,Wunderground v.1.15,2013-04-22 00:05:00,
2013-04-21 19:10:00,79.1,57.1,30.00,ESE,116,1.0,1.0,47,0.00,,,0.00,Wunderground v.1.15,2013-04-22 00:10:00,
2013-04-21 19:20:00,78.7,56.8,30.00,ESE,122,1.0,1.0,47,0.00,,,0.00,Wunderground v.1.15,2013-04-22 00:20:00,
2013-04-21 19:30:00,78.7,57.4,30.00,SE,139,1.0,1.0,48,0.00,,,0.00,Wunderground v.1.15,2013-04-22 00:30:00,
2013-04-21 19:40:00,78.2,56.9,30.00,SE,134,0.0,1.0,48,0.00,,,0.00,Wunderground v.1.15,2013-04-22 00:40:00,
2013-04-21 19:50:00,77.1,57.0,30.01,East,86,1.0,2.0,50,0.00,,,0.00,Wunderground v.1.15,2013-04-22 00:50:00,
2013-04-21 20:00:00,75.8,57.4,30.01,ESE,110,1.0,1.0,53,0.00,,,0.00,Wunderground v.1.15,2013-04-22 01:00:00,
2013-04-21 20:05:00,75.1,57.8,30.01,ESE,106,1.0,2.0,55,0.00,,,0.00,Wunderground v.1.15,2013-04-22 01:05:00,
2013-04-21 20:15:00,73.9,58.2,30.02,ESE,120,1.0,1.0,58,0.00,,,0.00,Wunderground v.1.15,2013-04-22 01:15:00,
2013-04-21 20:20:00,73.4,58.2,30.02,NNE,27,0.0,0.0,59,0.00,,,0.00,Wunderground v.1.15,2013-04-22 01:20:00,
2013-04-21 20:30:00,72.4,58.2,30.03,NNW,335,0.0,0.0,61,0.00,,,0.00,Wunderground v.1.15,2013-04-22 01:30:00,
2013-04-21 20:40:00,71.6,57.9,30.03,ENE,63,0.0,0.0,62,0.00,,,0.00,Wunderground v.1.15,2013-04-22 01:40:00,
2013-04-21 20:50:00,70.9,58.1,30.03,NE,48,0.0,0.0,64,0.00,,,0.00,Wunderground v.1.15,2013-04-22 01:50:00,
2013-04-21 20:55:00,70.6,57.8,30.04,NE,48,0.0,0.0,64,0.00,,,0.00,Wunderground v.1.15,2013-04-22 01:55:00,
2013-04-21 21:05:00,70.0,58.1,30.05,ENE,59,0.0,0.0,66,0.00,,,0.00,Wunderground v.1.15,2013-04-22 02:05:00,
2013-04-21 21:10:00,69.8,57.9,30.05,ENE,61,0.0,0.0,66,0.00,,,0.00,Wunderground v.1.15,2013-04-22 02:10:00,
2013-04-21 21:20:00,69.7,58.7,30.06,NE,51,1.0,1.0,68,0.00,,,0.00,Wunderground v.1.15,2013-04-22 02:20:00,
2013-04-21 21:30:00,69.6,59.0,30.06,East,98,1.0,1.0,69,0.00,,,0.00,Wunderground v.1.15,2013-04-22 02:30:00,
2013-04-21 21:35:00,69.4,59.2,30.06,ESE,108,1.0,1.0,70,0.00,,,0.00,Wunderground v.1.15,2013-04-22 02:35:00,
2013-04-21 21:45:00,69.1,59.3,30.06,SSE,158,1.0,1.0,71,0.00,,,0.00,Wunderground v.1.15,2013-04-22 02:45:00,
2013-04-21 21:50:00,69.0,59.2,30.07,ENE,75,1.0,1.0,71,0.00,,,0.00,Wunderground v.1.15,2013-04-22 02:50:00,
2013-04-21 22:00:00,68.6,59.6,30.07,East,101,1.0,1.0,73,0.00,,,0.00,Wunderground v.1.15,2013-04-22 03:00:00,
2013-04-21 22:10:00,68.4,59.8,30.08,SSE,148,1.0,1.0,74,0.00,,,0.00,Wunderground v.1.15,2013-04-22 03:10:00,
2013-04-21 22:15:00,68.4,60.2,30.08,NNW,328,1.0,1.0,75,0.00,,,0.00,Wunderground v.1.15,2013-04-22 03:15:00,
2013-04-21 22:25:00,68.4,60.2,30.08,ESE,113,1.0,5.0,75,0.00,,,0.00,Wunderground v.1.15,2013-04-22 03:25:00,
2013-04-21 22:35:00,68.2,60.3,30.09,SE,146,1.0,1.0,76,0.00,,,0.00,Wunderground v.1.15,2013-04-22 03:35:00,
2013-04-21 22:45:00,67.9,60.1,30.09,East,98,2.0,3.0,76,0.00,,,0.00,Wunderground v.1.15,2013-04-22 03:45:00,
2013-04-21 22:50:00,67.8,60.3,30.09,SE,131,2.0,2.0,77,0.00,,,0.00,Wunderground v.1.15,2013-04-22 03:50:00,
2013-04-21 23:00:00,67.5,60.0,30.10,ESE,108,2.0,2.0,77,0.00,,,0.00,Wunderground v.1.15,2013-04-22 04:00:00,
2013-04-21 23:05:00,67.2,59.7,30.10,ENE,75,2.0,2.0,77,0.00,,,0.00,Wunderground v.1.15,2013-04-22 04:05:00,
2013-04-21 23:10:00,67.1,60.0,30.11,East,93,1.0,2.0,78,0.00,,,0.00,Wunderground v.1.15,2013-04-22 04:10:00,
2013-04-21 23:20:00,66.6,59.5,30.11,ESE,105,2.0,2.0,78,0.00,,,0.00,Wunderground v.1.15,2013-04-22 04:20:00,
2013-04-21 23:25:00,66.4,59.3,30.11,SSE,155,2.0,2.0,78,0.00,,,0.00,Wunderground v.1.15,2013-04-22 04:25:00,
2013-04-21 23:35:00,66.0,58.9,30.11,SSW,205,2.0,2.0,78,0.00,,,0.00,Wunderground v.1.15,2013-04-22 04:35:00,
2013-04-21 23:45:00,65.6,58.6,30.11,SE,139,2.0,2.0,78,0.00,,,0.00,Wunderground v.1.15,2013-04-22 04:45:00,
2013-04-21 23:55:00,65.4,58.7,30.12,SE,125,2.0,2.0,79,0.00,,,0.00,Wunderground v.1.15,2013-04-22 04:55:00,